createdAt,value
2018-09-10T00:01:52.927Z,13.07
2018-09-10T00:04:25.741Z,12.50
2018-09-10T00:06:58.655Z,12.20
2018-09-10T00:09:31.326Z,12.17
2018-09-10T00:12:04.142Z,12.00
2018-09-10T00:14:37.744Z,11.60
2018-09-10T00:17:10.687Z,12.33
2018-09-10T00:19:44.367Z,11.37
2018-09-10T00:22:17.565Z,10.90
2018-09-10T00:24:50.327Z,11.57
2018-09-10T00:27:23.353Z,11.27
2018-09-10T00:29:55.829Z,11.57
2018-09-10T00:32:28.414Z,11.90
2018-09-10T00:35:00.978Z,11.43
2018-09-10T00:37:34.416Z,11.17
2018-09-10T00:40:11.556Z,12.40
2018-09-10T00:42:45.520Z,10.97
2018-09-10T00:45:18.080Z,10.77
2018-09-10T00:47:50.967Z,10.73
2018-09-10T00:50:23.448Z,9.80
2018-09-10T00:52:56.959Z,11.13
2018-09-10T00:55:29.780Z,11.07
2018-09-10T00:58:02.348Z,10.23
2018-09-10T01:00:35.105Z,10.70
2018-09-10T01:03:08.273Z,10.70
2018-09-10T01:05:41.073Z,10.63
2018-09-10T01:08:13.935Z,10.57
2018-09-10T01:10:46.755Z,10.40
2018-09-10T01:13:19.347Z,10.83
2018-09-10T01:15:52.287Z,10.57
2018-09-10T01:18:25.228Z,10.90
2018-09-10T01:20:58.037Z,10.53
2018-09-10T01:23:31.666Z,10.40
2018-09-10T01:26:04.448Z,10.53
2018-09-10T01:28:37.967Z,9.63
2018-09-10T01:31:10.656Z,10.70
2018-09-10T01:33:48.829Z,9.60
2018-09-10T01:36:22.339Z,11.00
2018-09-10T01:38:55.334Z,10.60
2018-09-10T01:41:28.094Z,10.63
2018-09-10T01:44:00.802Z,10.73
2018-09-10T01:46:33.713Z,10.17
2018-09-10T01:49:06.315Z,10.70
2018-09-10T01:51:38.755Z,9.87
2018-09-10T01:54:11.152Z,10.60
2018-09-10T01:56:43.581Z,10.17
2018-09-10T01:59:16.176Z,10.50
2018-09-10T02:01:49.216Z,10.40
2018-09-10T02:04:22.081Z,10.10
2018-09-10T02:06:54.658Z,10.43
2018-09-10T02:09:27.537Z,10.47
2018-09-10T02:12:00.278Z,9.43
2018-09-10T02:14:33.120Z,9.20
2018-09-10T02:17:05.890Z,9.77
2018-09-10T02:19:38.373Z,9.73
2018-09-10T02:22:11.097Z,9.60
2018-09-10T02:24:43.660Z,10.43
2018-09-10T02:27:16.127Z,9.60
2018-09-10T02:29:48.486Z,10.17
2018-09-10T02:32:20.853Z,9.27
2018-09-10T02:34:53.830Z,9.60
2018-09-10T02:37:26.297Z,9.67
2018-09-10T02:39:59.077Z,9.47
2018-09-10T02:42:31.511Z,10.43
2018-09-10T02:45:04.361Z,9.93
2018-09-10T02:47:37.105Z,9.60
2018-09-10T02:50:09.590Z,9.57
2018-09-10T02:52:42.511Z,9.30
2018-09-10T02:55:15.195Z,10.27
2018-09-10T02:57:48.098Z,10.37
2018-09-10T03:00:23.664Z,9.97
2018-09-10T03:02:56.660Z,9.57
2018-09-10T03:05:29.234Z,9.87
2018-09-10T03:08:02.017Z,9.10
2018-09-10T03:10:34.544Z,9.57
2018-09-10T03:13:07.090Z,9.80
2018-09-10T03:15:39.584Z,8.93
2018-09-10T03:18:12.175Z,9.80
2018-09-10T03:20:44.581Z,9.47
2018-09-10T03:23:17.123Z,9.73
2018-09-10T03:25:49.762Z,9.57
2018-09-10T03:28:22.300Z,9.37
2018-09-10T03:30:54.808Z,9.90
2018-09-10T03:33:27.409Z,9.10
2018-09-10T03:35:59.855Z,8.23
2018-09-10T03:38:32.459Z,8.97
2018-09-10T03:41:04.877Z,9.30
2018-09-10T03:43:37.273Z,9.07
2018-09-10T03:46:09.793Z,8.07
2018-09-10T03:48:42.371Z,7.20
2018-09-10T03:51:15.146Z,8.33
2018-09-10T03:53:47.613Z,7.53
2018-09-10T03:56:19.985Z,8.20
2018-09-10T03:58:52.423Z,8.43
2018-09-10T04:01:24.995Z,8.20
2018-09-10T04:03:57.524Z,7.73
2018-09-10T04:06:29.939Z,7.47
2018-09-10T04:09:02.465Z,6.43
2018-09-10T04:11:34.999Z,6.50
2018-09-10T04:14:07.481Z,5.73
2018-09-10T04:16:40.257Z,5.07
2018-09-10T04:19:13.053Z,5.43
2018-09-10T04:21:46.029Z,5.27
2018-09-10T04:24:18.982Z,5.53
2018-09-10T04:26:52.698Z,5.90
2018-09-10T04:29:25.199Z,5.97
2018-09-10T04:31:57.642Z,5.10
2018-09-10T04:34:30.187Z,5.27
2018-09-10T04:37:02.971Z,5.20
2018-09-10T04:39:35.543Z,4.80
2018-09-10T04:42:08.327Z,4.80
2018-09-10T04:44:40.841Z,4.40
2018-09-10T04:47:13.588Z,4.30
2018-09-10T04:49:46.190Z,4.47
2018-09-10T04:52:18.515Z,4.47
2018-09-10T04:54:51.138Z,4.30
2018-09-10T04:57:23.677Z,3.83
2018-09-10T04:59:56.443Z,4.40
2018-09-10T05:02:29.275Z,4.90
2018-09-10T05:05:01.790Z,4.03
2018-09-10T05:07:34.496Z,4.27
2018-09-10T05:10:07.352Z,4.07
2018-09-10T05:12:39.730Z,4.23
2018-09-10T05:15:12.340Z,5.27
2018-09-10T05:17:45.044Z,3.90
2018-09-10T05:20:17.872Z,3.60
2018-09-10T05:22:50.487Z,4.20
2018-09-10T05:25:23.122Z,3.77
2018-09-10T05:27:56.208Z,4.30
2018-09-10T05:30:28.703Z,4.47
2018-09-10T05:33:01.084Z,4.40
2018-09-10T05:35:33.776Z,4.33
2018-09-10T05:38:06.256Z,3.73
2018-09-10T05:40:38.839Z,4.23
2018-09-10T05:43:11.655Z,5.10
2018-09-10T05:45:44.642Z,4.17
2018-09-10T05:48:17.213Z,5.77
2018-09-10T05:50:49.846Z,4.40
2018-09-10T05:53:22.476Z,4.23
2018-09-10T05:55:55.487Z,4.87
2018-09-10T05:58:28.227Z,4.30
2018-09-10T06:01:00.785Z,4.57
2018-09-10T06:03:33.239Z,4.90
2018-09-10T06:06:05.789Z,4.63
2018-09-10T06:08:38.324Z,4.67
2018-09-10T06:11:11.011Z,4.40
2018-09-10T06:13:43.611Z,5.33
2018-09-10T06:16:16.159Z,5.27
2018-09-10T06:18:48.595Z,4.30
2018-09-10T06:21:21.355Z,4.80
2018-09-10T06:23:54.022Z,4.83
2018-09-10T06:26:27.374Z,4.83
2018-09-10T06:29:00.282Z,5.23
2018-09-10T06:31:32.964Z,5.30
2018-09-10T06:34:05.676Z,4.53
2018-09-10T06:36:38.677Z,4.73
2018-09-10T06:39:29.852Z,8.47
2018-09-10T06:42:02.306Z,7.30
2018-09-10T06:44:35.162Z,6.27
2018-09-10T06:47:08.219Z,6.43
2018-09-10T06:49:41.252Z,5.63
2018-09-10T06:52:14.272Z,6.10
2018-09-10T06:54:47.136Z,5.00
2018-09-10T06:57:19.682Z,4.97
2018-09-10T06:59:52.640Z,5.27
2018-09-10T07:02:25.328Z,4.70
2018-09-10T07:04:58.089Z,4.67
2018-09-10T07:07:31.318Z,4.60
2018-09-10T07:10:04.173Z,5.07
2018-09-10T07:12:36.947Z,4.80
2018-09-10T07:15:10.386Z,4.90
2018-09-10T07:17:43.794Z,4.60
2018-09-10T07:20:16.741Z,4.00
2018-09-10T07:22:49.258Z,3.90
2018-09-10T07:25:22.019Z,4.17
2018-09-10T07:27:54.725Z,4.10
2018-09-10T07:30:27.442Z,3.63
2018-09-10T07:33:00.531Z,3.63
2018-09-10T07:35:33.307Z,3.60
2018-09-10T07:38:05.923Z,4.20
2018-09-10T07:40:38.632Z,3.70
2018-09-10T07:43:11.191Z,3.50
2018-09-10T07:45:44.308Z,3.90
2018-09-10T07:48:16.843Z,2.83
2018-09-10T07:50:49.619Z,3.97
2018-09-10T07:53:22.314Z,4.17
2018-09-10T07:55:55.263Z,6.17
2018-09-10T07:58:28.393Z,3.87
2018-09-10T08:01:01.490Z,3.73
2018-09-10T08:03:38.772Z,2.80
2018-09-10T08:06:12.943Z,3.57
2018-09-10T08:08:47.603Z,2.63
2018-09-10T08:11:21.331Z,2.80
2018-09-10T08:13:57.482Z,2.53
2018-09-10T08:16:30.320Z,3.93
2018-09-10T08:19:04.059Z,3.77
2018-09-10T08:21:36.950Z,4.60
2018-09-10T08:24:09.763Z,4.80
2018-09-10T08:26:42.861Z,3.47
2018-09-10T08:29:17.143Z,2.73
2018-09-10T08:31:50.117Z,2.80
2018-09-10T08:34:23.144Z,16.83
2018-09-10T08:36:58.025Z,7.63
2018-09-10T08:39:30.877Z,3.57
2018-09-10T08:42:04.663Z,3.83
2018-09-10T08:44:37.382Z,2.90
2018-09-10T08:47:11.030Z,2.60
2018-09-10T08:49:43.784Z,2.63
2018-09-10T08:52:17.104Z,4.80
2018-09-10T08:54:50.790Z,3.27
2018-09-10T08:57:23.354Z,3.10
2018-09-10T08:59:56.325Z,2.90
2018-09-10T09:02:29.210Z,2.13
2018-09-10T09:05:01.990Z,2.27
2018-09-10T09:07:34.639Z,3.37
2018-09-10T09:10:07.368Z,3.57
2018-09-10T09:12:40.359Z,2.50
2018-09-10T09:15:13.105Z,2.40
2018-09-10T09:17:46.882Z,2.03
2018-09-10T09:20:19.479Z,2.70
2018-09-10T09:22:52.159Z,2.17
2018-09-10T09:25:24.796Z,8.00
2018-09-10T09:27:57.810Z,3.33
2018-09-10T09:30:31.244Z,5.10
2018-09-10T09:33:05.167Z,2.13
2018-09-10T09:35:44.219Z,2.07
2018-09-10T09:38:22.562Z,8.23
2018-09-10T09:43:34.445Z,4.43
2018-09-10T09:46:10.822Z,2.70
2018-09-10T09:48:43.431Z,2.53
2018-09-10T09:51:17.647Z,2.30
2018-09-10T09:53:50.158Z,5.00
2018-09-10T09:56:23.093Z,3.07
2018-09-10T09:58:55.862Z,2.93
2018-09-10T10:01:34.331Z,3.27
2018-09-10T10:04:08.054Z,2.97
2018-09-10T10:06:41.086Z,3.07
2018-09-10T10:09:13.911Z,2.10
2018-09-10T10:11:47.075Z,2.60
2018-09-10T10:14:21.150Z,2.63
2018-09-10T10:16:54.152Z,2.20
2018-09-10T10:19:28.732Z,2.40
2018-09-10T10:22:01.902Z,31.57
2018-09-10T10:24:35.285Z,5.20
2018-09-10T10:27:08.037Z,3.00
2018-09-10T10:29:40.994Z,2.93
2018-09-10T10:32:13.878Z,2.50
2018-09-10T10:34:47.537Z,3.43
2018-09-10T10:37:20.262Z,4.53
2018-09-10T10:40:00.056Z,2.60
2018-09-10T10:42:35.734Z,2.07
2018-09-10T10:45:10.537Z,2.30
2018-09-10T10:47:43.787Z,2.73
2018-09-10T10:50:17.371Z,2.50
2018-09-10T10:52:50.069Z,2.67
2018-09-10T10:55:22.711Z,2.30
2018-09-10T10:57:55.322Z,2.77
2018-09-10T11:00:28.061Z,2.60
2018-09-10T11:03:00.943Z,2.37
2018-09-10T11:05:34.780Z,2.40
2018-09-10T11:08:07.347Z,2.83
2018-09-10T11:10:40.113Z,2.50
2018-09-10T11:13:12.989Z,3.53
2018-09-10T11:15:45.597Z,3.00
2018-09-10T11:18:18.563Z,3.10
2018-09-10T11:20:51.203Z,2.30
2018-09-10T11:23:27.363Z,2.70
2018-09-10T11:25:59.789Z,2.77
2018-09-10T11:28:32.554Z,2.33
2018-09-10T11:31:05.090Z,4.10
2018-09-10T11:33:37.767Z,4.37
2018-09-10T11:36:10.797Z,8.37
2018-09-10T11:38:43.528Z,6.40
2018-09-10T11:41:16.185Z,5.03
2018-09-10T11:43:50.895Z,7.63
2018-09-10T11:46:24.091Z,3.37
2018-09-10T11:48:57.335Z,3.20
2018-09-10T11:51:30.064Z,2.50
2018-09-10T11:54:03.163Z,2.20
2018-09-10T11:56:35.789Z,3.07
2018-09-10T11:59:08.333Z,2.43
2018-09-10T12:01:40.910Z,2.00
2018-09-10T12:04:14.759Z,2.27
2018-09-10T12:06:47.302Z,2.30
2018-09-10T12:09:19.903Z,2.47
2018-09-10T12:11:52.612Z,2.47
2018-09-10T12:14:25.378Z,2.40
2018-09-10T12:16:58.053Z,2.20
2018-09-10T12:19:30.811Z,2.30
2018-09-10T12:22:03.770Z,2.10
2018-09-10T12:24:36.672Z,2.20
2018-09-10T12:27:10.689Z,2.30
2018-09-10T12:29:43.406Z,2.57
2018-09-10T12:32:16.246Z,2.20
2018-09-10T12:34:48.729Z,2.00
2018-09-10T12:37:21.270Z,2.27
2018-09-10T12:39:54.920Z,2.23
2018-09-10T12:42:27.867Z,1.90
2018-09-10T12:45:00.895Z,1.83
2018-09-10T12:47:34.786Z,2.10
2018-09-10T12:50:07.563Z,1.70
2018-09-10T12:52:40.313Z,1.90
2018-09-10T12:55:14.081Z,28.93
2018-09-10T12:57:46.685Z,2.33
2018-09-10T13:00:19.528Z,2.67
2018-09-10T13:02:52.367Z,2.20
2018-09-10T13:05:25.353Z,3.30
2018-09-10T13:07:58.263Z,4.40
2018-09-10T13:10:31.016Z,2.10
2018-09-10T13:13:04.796Z,14.87
2018-09-10T13:15:38.437Z,3.90
2018-09-10T13:18:11.294Z,2.40
2018-09-10T13:20:44.537Z,2.00
2018-09-10T13:23:17.265Z,2.07
2018-09-10T13:25:53.060Z,1.70
2018-09-10T13:28:27.536Z,1.70
2018-09-10T13:31:00.106Z,1.93
2018-09-10T13:33:33.105Z,1.87
2018-09-10T13:36:06.169Z,2.20
2018-09-10T13:38:38.755Z,1.80
2018-09-10T13:41:11.465Z,2.30
2018-09-10T13:43:44.077Z,2.13
2018-09-10T13:46:17.184Z,1.70
2018-09-10T13:48:51.231Z,1.70
2018-09-10T13:51:28.963Z,2.07
2018-09-10T13:54:04.366Z,1.90
2018-09-10T13:56:38.008Z,2.10
2018-09-10T13:59:12.546Z,1.70
2018-09-10T14:01:47.769Z,1.80
2018-09-10T14:04:22.379Z,1.93
2018-09-10T14:06:58.347Z,1.90
2018-09-10T14:09:32.365Z,1.83
2018-09-10T14:12:06.135Z,2.03
2018-09-10T14:14:38.806Z,1.73
2018-09-10T14:17:12.067Z,2.00
2018-09-10T14:19:50.276Z,3.47
2018-09-10T14:22:22.952Z,1.77
2018-09-10T14:25:05.978Z,1.90
2018-09-10T14:27:39.376Z,1.90
2018-09-10T14:30:12.656Z,2.13
2018-09-10T14:32:51.040Z,1.80
2018-09-10T14:35:25.276Z,1.97
2018-09-10T14:37:58.276Z,1.67
2018-09-10T14:40:30.916Z,4.37
2018-09-10T14:43:04.007Z,2.30
2018-09-10T14:45:37.848Z,2.50
2018-09-10T14:48:10.704Z,1.63
2018-09-10T14:50:43.390Z,1.80
2018-09-10T14:53:16.239Z,1.97
2018-09-10T14:55:51.531Z,2.20
2018-09-10T14:58:24.380Z,2.57
2018-09-10T15:00:58.404Z,2.17
2018-09-10T15:03:31.260Z,2.00
2018-09-10T15:06:04.878Z,1.90
2018-09-10T15:08:38.796Z,2.30
2018-09-10T15:11:12.338Z,2.27
2018-09-10T15:13:45.602Z,1.87
2018-09-10T15:16:19.962Z,2.10
2018-09-10T15:18:53.424Z,1.97
2018-09-10T15:21:26.257Z,2.03
2018-09-10T15:23:59.584Z,2.00
2018-09-10T15:26:32.549Z,2.20
2018-09-10T15:29:06.327Z,2.83
2018-09-10T15:31:40.379Z,1.90
2018-09-10T15:34:16.511Z,2.13
2018-09-10T15:36:49.748Z,1.73
2018-09-10T15:39:23.676Z,2.30
2018-09-10T15:41:56.397Z,2.00
2018-09-10T15:44:30.231Z,2.17
2018-09-10T15:47:03.085Z,2.67
2018-09-10T15:49:38.110Z,2.60
2018-09-10T15:52:11.888Z,1.93
2018-09-10T15:54:45.994Z,1.83
2018-09-10T15:57:19.649Z,2.20
2018-09-10T15:59:54.286Z,2.23
2018-09-10T16:02:27.835Z,2.40
2018-09-10T16:05:02.130Z,2.00
2018-09-10T16:07:34.716Z,2.67
2018-09-10T16:10:08.217Z,4.07
2018-09-10T16:12:41.821Z,2.47
2018-09-10T16:15:17.735Z,2.23
2018-09-10T16:17:50.387Z,2.43
2018-09-10T16:20:23.469Z,2.33
2018-09-10T16:22:57.498Z,1.80
2018-09-10T16:25:30.597Z,2.60
2018-09-10T16:28:03.363Z,2.50
2018-09-10T16:30:36.123Z,2.57
2018-09-10T16:33:09.618Z,2.40
2018-09-10T16:35:42.225Z,2.50
2018-09-10T16:38:14.952Z,3.00
2018-09-10T16:40:48.643Z,2.60
2018-09-10T16:43:21.547Z,3.00
2018-09-10T16:45:54.843Z,2.83
2018-09-10T16:48:29.501Z,2.67
2018-09-10T16:51:02.843Z,2.80
2018-09-10T16:53:35.537Z,2.33
2018-09-10T16:56:08.175Z,2.63
2018-09-10T16:58:40.690Z,2.20
2018-09-10T17:01:13.146Z,3.13
2018-09-10T17:03:45.808Z,2.30
2018-09-10T17:06:18.440Z,2.10
2018-09-10T17:08:50.991Z,3.33
2018-09-10T17:11:23.882Z,2.53
2018-09-10T17:13:56.821Z,2.53
2018-09-10T17:16:29.511Z,2.50
2018-09-10T17:19:02.435Z,2.50
2018-09-10T17:21:34.941Z,2.50
2018-09-10T17:24:08.523Z,2.47
2018-09-10T17:26:41.137Z,2.47
2018-09-10T17:29:15.081Z,2.53
2018-09-10T17:31:48.548Z,2.30
2018-09-10T17:34:21.111Z,2.63
2018-09-10T17:36:54.459Z,2.87
2018-09-10T17:39:27.069Z,2.10
2018-09-10T17:41:59.772Z,2.60
2018-09-10T17:44:33.939Z,2.50
2018-09-10T17:47:06.761Z,2.73
2018-09-10T17:49:39.465Z,2.40
2018-09-10T17:52:12.253Z,2.57
2018-09-10T17:54:45.334Z,2.63
2018-09-10T17:57:18.137Z,2.90
2018-09-10T17:59:50.775Z,2.60
2018-09-10T18:02:23.383Z,2.60
2018-09-10T18:04:56.026Z,2.33
2018-09-10T18:07:28.930Z,2.87
2018-09-10T18:10:01.664Z,2.33
2018-09-10T18:12:34.501Z,2.50
2018-09-10T18:15:07.074Z,2.60
2018-09-10T18:17:39.829Z,2.57
2018-09-10T18:20:12.485Z,3.00
2018-09-10T18:22:45.236Z,2.50
2018-09-10T18:25:17.970Z,2.93
2018-09-10T18:27:50.878Z,2.60
2018-09-10T18:30:23.672Z,2.93
2018-09-10T18:32:56.516Z,2.90
2018-09-10T18:35:29.261Z,2.80
2018-09-10T18:38:01.934Z,2.80
2018-09-10T18:40:34.815Z,3.00
2018-09-10T18:43:07.673Z,3.37
2018-09-10T18:45:40.325Z,3.07
2018-09-10T18:48:13.160Z,2.93
2018-09-10T18:50:45.776Z,2.97
2018-09-10T18:53:18.409Z,3.50
2018-09-10T18:55:50.946Z,3.03
2018-09-10T18:58:23.710Z,3.40
2018-09-10T19:00:57.631Z,3.10
2018-09-10T19:03:30.250Z,3.90
2018-09-10T19:06:02.967Z,3.00
2018-09-10T19:08:35.746Z,3.50
2018-09-10T19:11:08.364Z,2.73
2018-09-10T19:13:41.215Z,3.00
2018-09-10T19:16:14.007Z,3.50
2018-09-10T19:18:46.789Z,2.93
2018-09-10T19:21:19.641Z,3.50
2018-09-10T19:23:52.187Z,3.77
2018-09-10T19:26:24.854Z,3.57
2018-09-10T19:28:58.135Z,3.13
2018-09-10T19:31:30.575Z,4.67
2018-09-10T19:34:03.253Z,5.10
2018-09-10T19:36:35.988Z,3.47
2018-09-10T19:39:09.649Z,3.20
2018-09-10T19:41:42.377Z,3.77
2018-09-10T19:44:15.298Z,4.20
2018-09-10T19:46:48.082Z,3.33
2018-09-10T19:49:20.803Z,3.27
2018-09-10T19:51:53.444Z,3.90
2018-09-10T19:54:27.156Z,3.87
2018-09-10T19:57:00.624Z,4.33
2018-09-10T19:59:34.225Z,3.43
2018-09-10T20:02:07.522Z,3.30
2018-09-10T20:04:40.650Z,3.20
2018-09-10T20:07:14.082Z,3.03
2018-09-10T20:09:47.116Z,3.43
2018-09-10T20:12:20.413Z,3.30
2018-09-10T20:14:53.322Z,3.20
2018-09-10T20:17:27.188Z,3.30
2018-09-10T20:20:00.154Z,2.80
2018-09-10T20:22:34.027Z,3.70
2018-09-10T20:25:08.137Z,3.00
2018-09-10T20:27:40.934Z,3.40
2018-09-10T20:30:15.032Z,3.20
2018-09-10T20:32:47.874Z,4.10
2018-09-10T20:35:20.729Z,3.87
2018-09-10T20:37:53.624Z,3.00
2018-09-10T20:40:26.375Z,3.87
2018-09-10T20:42:59.142Z,3.97
2018-09-10T20:45:32.059Z,3.40
2018-09-10T20:48:04.954Z,4.10
2018-09-10T20:50:38.080Z,3.63
2018-09-10T20:53:10.741Z,3.77
2018-09-10T20:55:43.858Z,4.00
2018-09-10T20:58:16.752Z,4.00
2018-09-10T21:00:49.493Z,4.07
2018-09-10T21:03:22.042Z,3.83
2018-09-10T21:05:54.827Z,3.97
2018-09-10T21:08:27.448Z,3.77
2018-09-10T21:11:00.072Z,4.40
2018-09-10T21:13:32.751Z,4.03
2018-09-10T21:16:05.851Z,4.07
2018-09-10T21:18:38.625Z,4.37
2018-09-10T21:21:11.010Z,4.30
2018-09-10T21:23:43.497Z,5.07
2018-09-10T21:26:16.992Z,3.97
2018-09-10T21:28:49.640Z,4.60
2018-09-10T21:31:22.045Z,5.07
2018-09-10T21:33:54.875Z,4.73
2018-09-10T21:36:27.743Z,5.03
2018-09-10T21:39:00.395Z,4.00
2018-09-10T21:41:34.237Z,4.77
2018-09-10T21:44:09.179Z,4.27
2018-09-10T21:46:41.755Z,3.97
2018-09-10T21:49:14.420Z,4.63
2018-09-10T21:51:47.041Z,4.63
2018-09-10T21:54:22.653Z,3.40
2018-09-10T21:56:57.513Z,4.17
2018-09-10T21:59:30.286Z,3.63
2018-09-10T22:02:04.372Z,3.90
2018-09-10T22:04:37.571Z,3.90
2018-09-10T22:07:10.232Z,3.60
2018-09-10T22:09:43.967Z,3.50
2018-09-10T22:12:16.797Z,3.90
2018-09-10T22:14:50.463Z,4.00
2018-09-10T22:17:23.622Z,3.90
2018-09-10T22:19:56.246Z,3.63
2018-09-10T22:22:28.889Z,4.37
2018-09-10T22:25:02.364Z,3.80
2018-09-10T22:27:34.970Z,4.07
2018-09-10T22:30:08.214Z,3.73
2018-09-10T22:32:41.034Z,3.67
2018-09-10T22:35:13.840Z,3.97
2018-09-10T22:37:48.202Z,3.67
2018-09-10T22:40:20.855Z,3.73
2018-09-10T22:42:54.133Z,4.03
2018-09-10T22:45:27.471Z,3.87
2018-09-10T22:48:00.412Z,3.60
2018-09-10T22:50:33.493Z,3.70
2018-09-10T22:53:06.223Z,3.27
2018-09-10T22:55:38.920Z,3.53
2018-09-10T22:58:11.704Z,3.47
2018-09-10T23:00:44.181Z,3.47
2018-09-10T23:03:16.575Z,3.57
2018-09-10T23:05:49.072Z,3.63
2018-09-10T23:08:21.451Z,2.90
2018-09-10T23:10:59.430Z,3.47
2018-09-10T23:13:31.792Z,3.47
2018-09-10T23:16:05.046Z,4.17
2018-09-10T23:18:37.553Z,3.13
2018-09-10T23:21:10.156Z,3.17
2018-09-10T23:23:42.727Z,3.43
2018-09-10T23:26:15.194Z,3.43
2018-09-10T23:28:47.659Z,3.33
2018-09-10T23:31:20.122Z,3.33
2018-09-10T23:33:52.539Z,3.43
2018-09-10T23:36:24.912Z,3.00
2018-09-10T23:38:57.526Z,3.30
2018-09-10T23:41:29.927Z,3.07
2018-09-10T23:44:02.302Z,3.30
2018-09-10T23:46:34.714Z,3.50
2018-09-10T23:49:07.102Z,3.13
2018-09-10T23:51:39.523Z,3.43
2018-09-10T23:54:11.922Z,3.47
2018-09-10T23:56:44.636Z,3.93
2018-09-10T23:59:18.102Z,3.03
